AirNav   Air Wisconsin Airman Trainee
 
 1318 users online  

3VS Roy Otten Memorial Airfield
Versailles, Missouri, USA

GOING TO VERSAILLES?


FAA INFORMATION EFFECTIVE 31 JANUARY 2019

Location

FAA Identifier: 3VS
Lat/Long: 38-25-41.8000N / 092-52-31.0000W
38-25.696667N / 092-52.516667W
38.4282778 / -92.8752778
(estimated)
Elevation: 1027 ft. / 313 m (estimated)
Variation: 04E (1985)
From city: 2 miles W of VERSAILLES, MO
Time zone: UTC -6 (UTC -5 during Daylight Saving Time)
Zip code: 65084

Airport Operations

Airport use: Open to the public
Activation date: 03/1971
Control tower: no
ARTCC: KANSAS CITY CENTER
FSS: COLUMBIA FLIGHT SERVICE STATION
NOTAMs facility: COU (NOTAM-D service available)
Attendance: 0800-1700
Wind indicator: lighted
Segmented circle: yes
Lights: ACTVT LIRL RY 07/25 - CTAF, CLICK 3 TIMES.
Beacon: white-green (lighted land airport)
Operates sunset to sunrise.

Airport Communications

CTAF/UNICOM: 122.8

Nearby radio navigation aids

VOR radial/distance  VOR name  Freq  Var
SHYr331/26.6SUNSHINE VOR/DME108.4000E
COUr233/38.4COLUMBIA VOR/DME110.2000E

 
NDB name  Hdg/Dist  Freq  Var  ID
SEDALIA137/21.828103EDMO -.. -- ---
GOLDEN VALLEY083/38.338801EGLY --. .-.. -.--
MARSHALL155/39.837103EPUR .--. ..- .-.

Airport Services

Fuel available: 100LL
FUEL AVBL 24 HRS SELF-SVC.
Parking: hangars and tiedowns
Airframe service: MAJOR
Powerplant service: MAJOR
Bottled oxygen: NONE
Bulk oxygen: NONE

Runway Information

Runway 7/25

Dimensions: 2805 x 39 ft. / 855 x 12 m
WIDTH VARIANCE 39-40 FT.
Surface: asphalt, in fair condition
Runway edge lights: non-standard
NSTD LIRL; THLD LGTS SPACED INCORRECTLY; THLD & EDGE LGTS PLACED 11-18 FT FM RY EDGE.
Runway edge markings: CENTERLINE MARKINGS FADED.
Gradient: 0.9% UP W.
RUNWAY 7  RUNWAY 25
Latitude: 38-25.627500N38-25.765167N
Longitude: 092-52.796333W092-52.235333W
Elevation: 1027.0 ft.1003.0 ft.
Gradient: 0.9% UP
Traffic pattern: leftright
Markings: basic, in fair conditionbasic, in fair condition
Obstructions: 58 ft. trees, 631 ft. from runway, 87 ft. right of centerline, 7:1 slope to clear45 ft. trees, 302 ft. from runway, 63 ft. left of centerline, 2:1 slope to clear
8 FT ROAD 105-200 FT FM RWY END 40-125L; 1-30 FT BRUSH & TREES 0-200 FT FM RWY END 90-125 FT R; 5 FT DIRT PILE 156 FT FM RWY END 55L

Helipad H1

Dimensions: 50 x 50 ft. / 15 x 15 m
Surface: concrete, in good condition
Runway edge lights: PERI
Runway edge markings: MARKINGS FADED.
Traffic pattern: leftleft
Markings: basic, in fair condition
Obstructions: trees
+45 FT TREES, 380 FT NW OF FATO, 8:1 APCH SLOPE; +14-52 FT TREES, 490 FT SSE OF FATO, 8:1 APCH SLOPE.

Airport Ownership and Management from official FAA records

Ownership: Publicly-owned
Owner: CITY OF VERSAILLES
104 N. FISHER ST.
VERSAILLES, MO 65084
Phone 573-378-4634
Manager: BILL FORESTER
10998 HWY 52
VERSAILLES, MO 65084
Phone 573-378-6373
AMGR CELL: 573-836-0506

Airport Operational Statistics

Aircraft based on the field: 25
Single engine airplanes: 23
Multi engine airplanes: 1
Helicopters: 1
    
Aircraft operations: avg 22/day *
49% transient general aviation
49% local general aviation
2% military
* for 12-month period ending 31 December 2015

Additional Remarks

CROP DUSTING ACFT AND HELICOPTERS; AND ULTRALIGHT ACTIVITY ON AND INVOF ARPT.
DEER & WILDLIFE ON & INVOF ARPT.
RY 07/25 LINE OF SIGHT OBSTRUCTED BY GRADE CHANGE IN RY.
NTSD RY SAFETY AREA BYND EACH RY END; INCORRECT TERRAIN GRADES, LARGE DROP OFF AT RY 07 END, ROAD AT RY 25 END.

Instrument Procedures

There are no published instrument procedures at 3VS.

Some nearby airports with instrument procedures:

H79 - Eldon Model Airpark (15 nm E)
K15 - Grand Glaize-Osage Beach Airport (21 nm SE)
KDMO - Sedalia Regional Airport (22 nm NW)
KRAW - Warsaw Municipal Airport (23 nm W)
KAIZ - Lee C Fine Memorial Airport (25 nm SE)
 
Loc | Ops | Rwys | IFR | FBO | Links
Com | Nav | Svcs | Stats | Notes

Kansas City Aviation Department
 
Area around 3VS (Roy Otten Memorial Airfield)
 
Road maps at: MapQuest Bing Google
 
Aerial photo
WARNING: Photo may not be current or correct
Aerial photo of 3VS (Roy Otten Memorial Airfield)
Do you have a better or more recent aerial photo of Roy Otten Memorial Airfield that you would like to share? If so, please send us your photo.

 
Sectional chart

 
Airport distance calculator
Flying to Roy Otten Memorial Airfield? Find the distance to fly.

From to 3VS

Sunrise and sunset
Times for 15-Feb-2019
 Local
(UTC-6)
 Zulu
(UTC)
Morning civil twilight06:3612:36
Sunrise07:0313:03
Sunset17:4823:48
Evening civil twilight18:1500:15

Current date and time
Zulu (UTC)  15-Feb-2019 20:15:55
Local (UTC-6)  15-Feb-2019 14:15:55
 
METAR
KDMO 
22nm NW 
151953Z AUTO 01011KT 1/2SM SN FZFG VV010 M08/M10 A3001 RMK AO2 SLP177 P0004 T10831100
KRAW 
23nm W 
151955Z AUTO 01009KT 3/4SM -SN OVC007 A3001 RMK AO2
KAIZ 
25nm SE 
151956Z AUTO 03007KT 1/2SM SN FZFG SCT010 OVC016 M07/M08 A2998 RMK AO2 SLP165 P0002 T10671083 FZRANO
KOZS 
29nm S 
151955Z AUTO 03005KT 2SM -SN BKN011 OVC016 M06/M07 A2997 RMK AO2 P0002
KVER 
32nm N 
151955Z AUTO 36007KT 1SM -SN OVC011 M08/M09 A3003 RMK AO2 T10761095
KSZL 
35nm NW 
151956Z 03011KT 2SM -SN BKN002 OVC016 M09/M11 A2997 RMK SLP166 P0010 60040 T10891113 57017 $
KJEF 
36nm E 
151953Z 00000KT 1/2SM SN FZFG VV010 M07/M09 A3003 RMK AO2 SLP167 P0000 T10671089
KGLY 
38nm W 
151955Z AUTO 06012KT 1SM -SN BKN003 M08/M10 A3001 RMK AO2
KCOU 
39nm NE 
151954Z 01008KT 1/2SM SN VV013 M08/M11 A3000 RMK AO2 SLP172 P0005 T10781106
KMHL 
43nm N 
151955Z AUTO 36007KT 3/4SM -SN VV005 M08/M11 A3004 RMK AO2 P0001
TAF
KSZL 
35nm NW 
142349Z 1423/1601 33012G25KT 9999 BKN013 QNH2954INS BECMG 1500/1501 33015G25KT 9999 FEW020 SCT150 QNH2969INS BECMG 1511/1512 02010G15KT 9999 BKN020 OVC100 620208 621009 QNH2993INS BECMG 1516/1517 04010G15KT 4800 -SN BKN020 OVC100 620208 621009 QNH2991INS BECMG 1519/1520 04010G15KT 3200 -SN OVC015 650159 651055 QNH2990INS BECMG 1523/1524 04009KT 1600 -SN OVC007 650079 650976 QNH2990INS TX02/1423Z TNM06/1511Z
KCOU 
39nm NE 
151732Z 1518/1618 02008KT 1SM -SN OVC015 TEMPO 1518/1522 1/2SM SN OVC009 FM160200 01007KT P6SM VCSH OVC050 FM160400 01007KT P6SM OVC050 FM160900 02005KT P6SM SCT200
NOTAMs
Click for the latest NOTAMs
NOTAMs are issued by the DoD/FAA and will open in a separate window not controlled by AirNav.

 

 
 

FBO, Fuel Providers, and Aircraft Ground Support

  
 Business Name 
 
 Contact 
 
 Services / Description 
 
Fuel Prices
 
Comments
  
Forester Aviation 573-836-0506
no information available

If you are affiliated with Forester Aviation and would like to show here your services, contact info, web link, logo, and more, click here
100LL
SS $4.20 
 Updated 11-Jun-2018
 
   write
SS=Self service
Update Fuel Prices
 

Would you like to see your business listed on this page?

 If your business provides an interesting product or service to pilots, flight crews, aircraft, or users of the Roy Otten Memorial Airfield, you should consider listing it here.  To start the listing process, click on the button below
 
Add a business
 

Other Pages about Roy Otten Memorial Airfield

Update a link
 
Copyright © AirNav, LLC. All rights reserved. Privacy Policy  Contact